Imperial Beach, CA (91933)

7:50 PM PDT on October 24, 2014 (GMT -0700)
KCAIMPER2 | Change Station
CLOSE
Current Station
Personal Weather Station
Location: Imperial Beach, CA
Elevation: 14 ft
Nearby Weather Stations
Active Advisory: Beach Hazard Statement

Elev 14 ft 32.58 °N, 117.13 °W | Updated 3 minutes ago

Clear
Clear
70.4 °F
Feels Like 70.4 °F
N
0.0
Wind Variable Wind from West
Gusts 2.0 mph

Today
High -- | Low -- °F
--% Chance of Precip.
Yesterday
High -- | Low -- °F
Precip. -- in
6:59 AM 6:05 PM
New Moon, 2% visible
Pressure 29.94 in
Visibility 10.0 miles
Clouds Clear
Dew Point 67 °F
Humidity 89%
Rainfall 0.00 in
Snow Depth Not available.
UV 0 out of 12
Pollen 3.80 out of 12
Ozone Good
PM2.5 Good
Flu Activity Sporadic
METAR KNRS 250156Z AUTO 12004KT 10SM CLR 20/18 A2994 RMK AO2 SLP139 T02000178 $

More Conditions Fewer Conditions

Pressure 29.94 in
Visibility 10.0 miles
Clouds Clear
Dew Point 67 °F
Humidity 89%
Rainfall 0.00 in
Snow Depth Not available.
UV 0 out of 12
Pollen 3.80 out of 12
Ozone Good
PM2.5 Good
Flu Activity Sporadic
METAR KNRS 250156Z AUTO 12004KT 10SM CLR 20/18 A2994 RMK AO2 SLP139 T02000178 $

More Conditions Fewer Conditions

10-Day Weather Forecast

Almanac

Astronomy

Oct. 24, 2014 Rise Set
Actual Time 6:59 AM PDT 6:05 PM PDT
Civil Twilight 6:34 AM PDT 6:30 PM PDT
Nautical Twilight 6:05 AM PDT 6:59 PM PDT
Astronomical Twilight 5:36 AM PDT 7:27 PM PDT
Moon 7:41 AM PDT (10/24) 6:51 PM PDT (10/24)
Length of Visible Light 11h 56m
Length of Day
11h 06m
Tomorrow will be 1m 50s shorter.
New Moon, 2% of the Moon is Illuminated
Today
New Moon
Oct 30
First Quarter
Nov 6
Full
Nov 14
Last Quarter
Nov 22
New

Today's Extremes

State Highs State Lows

Community

WunderPhotos

Upload Photos

1,764,760 photos uploaded!

Nearby

Air Quality

  Air Quality AQ Index Pollutant
Yesterday Moderate
OZONE
Yesterday Moderate
PM2.5
Current Good
OZONE
Current Good
PM2.5
Friday Moderate
PM2.5
Friday Good
OZONE
Saturday Moderate
PM2.5
Saturday Good
OZONE
Sunday Good
PM2.5
Sunday Good
OZONE
Monday Good
PM2.5
Monday Good
OZONE

Snow Depth

Station Depth Elevation
Virginia Lakes Ridge 0 in 9200 ft
Leavitt Lake 1 in 9400 ft
Leavitt Meadows 1 in 7200 ft
Summit Meadow 1 in 9122 ft
Monitor Pass 0 in 8350 ft

Earthquake Activity

City Distance Mag. Time & Date
Maneadero, Mexico 99 miles 2.5 7:44 AM PDT
2014-10-24
San Felipe, Mexico 121 miles 3.0 11:00 PM PDT
2014-10-23
Brea, California 103 miles 2.9 3:35 PM PDT
2014-10-23
Brea, California 103 miles 2.8 3:34 PM PDT
2014-10-23
Minimum magnitude displayed is 2.5.

Coastal Water Temperatures

Place Temperature
La Jolla, CA 71.1 °F
San Diego, CA 73.9 °F

Nearby Weather Stations